Airfield :







YOU CAN JOIN US ON...

 
LOGIN :

Register | Disclaimer

   EN    FR    IT 

 









Legend :    VFR   Marginal VFR   IFR   Intensive IFR   Very Intensive IFR
Visi :
Ceiling :
>= 8 km
>= 3000ft
5 to 8 km
1000 to 3000 ft
1500m to 5 km
500 to 1000 ft
800 to 1500m
200 to 500 ft
< 800m
< 200 ft
Symbols :   Thunderstorms  Fog  Heavy snow  Heavy precipitations  Wind > 20 kt






- Airport Elevation : 124 ft
- IATA code : YGV


CYGV - Havre St Pierre

CURRENT METAR :
  • 242300Z AUTO VRB02KT 9SM CLR M19/M22 A3051 RMK SLP336

EXPIRED METARs :
  • 242232Z AUTO 00000KT 7SM CLR M18/M22 A3050 RMK SLP335
  • 242219Z AUTO 00000KT 5SM HZ CLR M17/M22 A3050 RMK SLP335
  • 242200Z AUTO VRB02KT 9SM CLR M17/M21 A3050 RMK SLP334
  • 242100Z AUTO 28005KT 9SM CLR M11/M20 A3050 RMK SLP334

TAF TAF CYGV
Valid from the 24 at 20:00 until the 25 at 08:00 UTC


241938Z 2420/2508 28008KT P6SM SKC RMK FCST BASED ON AUTO OBS. NXT FCST BY 250200Z



MET'MAP, your aeronautical weather chart ! - Copyright ORBIFLY December 2007 - Disclaimer

ORBIFLY MET'MAP TEAM :

Programming & Development : Alexandra Zaïnal
Concept & original design : Baudouin d'Aumeries
Assistance for programming : Marc-Olivier Méhu
Technical & hardware support : Manuel Goepfert

Contact : metmap@orbifly.com




SOURCES & CREDITS :

   NOAA